createdAt,value
2019-01-11T00:00:39.460Z,941.52
2019-01-11T00:01:40.161Z,941.54
2019-01-11T00:02:41.127Z,941.5
2019-01-11T00:03:43.075Z,941.52
2019-01-11T00:04:42.852Z,941.49
2019-01-11T00:05:43.943Z,941.49
2019-01-11T00:06:44.348Z,941.44
2019-01-11T00:07:44.761Z,941.43
2019-01-11T00:08:45.170Z,941.48
2019-01-11T00:09:45.688Z,941.44
2019-01-11T00:10:46.653Z,941.46
2019-01-11T00:11:47.349Z,941.46
2019-01-11T00:12:48.052Z,941.49
2019-01-11T00:13:48.463Z,941.51
2019-01-11T00:14:49.593Z,941.47
2019-01-11T00:15:50.682Z,941.46
2019-01-11T00:16:51.090Z,941.48
2019-01-11T00:17:52.902Z,941.48
2019-01-11T00:18:53.871Z,941.46
2019-01-11T00:19:54.557Z,941.51
2019-01-11T00:20:06.575Z,941.51
2019-01-11T00:21:07.409Z,941.51
2019-01-11T00:22:07.817Z,941.47
2019-01-11T00:23:08.229Z,941.45
2019-01-11T00:24:08.520Z,941.46
2019-01-11T00:25:08.930Z,941.49
2019-01-11T00:26:09.620Z,941.47
2019-01-11T00:27:10.749Z,941.46
2019-01-11T00:28:12.157Z,941.46
2019-01-11T00:29:12.842Z,941.44
2019-01-11T00:30:13.531Z,941.48
2019-01-11T00:31:14.642Z,941.47
2019-01-11T00:32:15.336Z,941.48
2019-01-11T00:33:15.739Z,941.42
2019-01-11T00:34:16.706Z,941.51
2019-01-11T00:35:17.838Z,941.48
2019-01-11T00:36:18.536Z,941.48
2019-01-11T00:37:19.670Z,941.5
2019-01-11T00:38:20.082Z,941.5
2019-01-11T00:39:20.500Z,941.46
2019-01-11T00:40:21.631Z,941.49
2019-01-11T00:41:22.446Z,941.44
2019-01-11T00:42:23.136Z,941.47
2019-01-11T00:43:24.546Z,941.44
2019-01-11T00:44:25.697Z,941.45
2019-01-11T00:45:26.110Z,941.46
2019-01-11T00:46:26.519Z,941.43
2019-01-11T00:47:26.977Z,941.47
2019-01-11T00:48:27.662Z,941.48
2019-01-11T00:49:28.358Z,941.48
2019-01-11T00:50:29.487Z,941.47
2019-01-11T00:51:30.053Z,941.5
2019-01-11T00:52:30.742Z,941.52
2019-01-11T00:53:31.427Z,941.57
2019-01-11T00:54:32.123Z,941.57
2019-01-11T00:55:32.818Z,941.55
2019-01-11T00:56:33.220Z,941.56
2019-01-11T00:57:33.632Z,941.55
2019-01-11T00:58:34.318Z,941.57
2019-01-11T00:59:35.290Z,941.59
2019-01-11T01:00:36.423Z,941.6
2019-01-11T01:01:36.961Z,941.59
2019-01-11T01:02:37.365Z,941.6
2019-01-11T01:03:37.807Z,941.62
2019-01-11T01:04:38.213Z,941.64
2019-01-11T01:05:38.734Z,941.64
2019-01-11T01:06:39.142Z,941.65
2019-01-11T01:07:39.584Z,941.65
2019-01-11T01:08:40.315Z,941.63
2019-01-11T01:09:41.010Z,941.64
2019-01-11T01:10:41.422Z,941.63
2019-01-11T01:11:41.840Z,941.62
2019-01-11T01:12:42.524Z,941.61
2019-01-11T01:13:42.943Z,941.66
2019-01-11T01:14:43.354Z,941.65
2019-01-11T01:15:44.485Z,941.69
2019-01-11T01:16:45.616Z,941.65
2019-01-11T01:17:46.025Z,941.7
2019-01-11T01:18:46.718Z,941.68
2019-01-11T01:19:48.545Z,941.71
2019-01-11T01:20:48.096Z,941.67
2019-01-11T01:21:48.950Z,941.68
2019-01-11T01:22:49.370Z,941.68
2019-01-11T01:23:49.779Z,941.69
2019-01-11T01:24:50.184Z,941.74
2019-01-11T01:25:51.595Z,941.74
2019-01-11T01:26:52.005Z,941.74
2019-01-11T01:27:52.721Z,941.72
2019-01-11T01:28:53.851Z,941.71
2019-01-11T01:29:54.984Z,941.76
2019-01-11T01:30:55.704Z,941.74
2019-01-11T01:31:56.813Z,941.75
2019-01-11T01:32:57.265Z,941.78
2019-01-11T01:33:57.668Z,941.77
2019-01-11T01:34:58.354Z,941.82
2019-01-11T01:35:59.091Z,941.79
2019-01-11T01:36:59.501Z,941.78
2019-01-11T01:37:59.912Z,941.79
2019-01-11T01:39:00.879Z,941.83
2019-01-11T01:40:02.009Z,941.79
2019-01-11T01:41:02.975Z,941.81
2019-01-11T01:42:03.829Z,941.83
2019-01-11T01:43:04.518Z,941.8
2019-01-11T01:44:04.958Z,941.83
2019-01-11T01:45:06.006Z,941.83
2019-01-11T01:46:06.412Z,941.83
2019-01-11T01:47:07.417Z,941.88
2019-01-11T01:48:07.827Z,941.82
2019-01-11T01:49:08.233Z,941.79
2019-01-11T01:50:08.641Z,941.83
2019-01-11T01:51:09.346Z,941.75
2019-01-11T01:52:10.182Z,941.79
2019-01-11T01:53:11.142Z,941.81
2019-01-11T01:54:12.390Z,941.79
2019-01-11T01:55:13.093Z,941.82
2019-01-11T01:56:13.818Z,941.8
2019-01-11T01:57:14.225Z,941.8
2019-01-11T01:58:14.627Z,941.82
2019-01-11T01:59:15.034Z,941.87
2019-01-11T02:00:15.437Z,941.9
2019-01-11T02:01:15.850Z,941.84
2019-01-11T02:02:16.661Z,941.86
2019-01-11T02:03:17.623Z,941.86
2019-01-11T02:04:18.752Z,941.91
2019-01-11T02:05:19.710Z,941.91
2019-01-11T02:06:20.389Z,941.97
2019-01-11T02:07:21.101Z,941.99
2019-01-11T02:08:22.065Z,941.94
2019-01-11T02:09:22.745Z,941.98
2019-01-11T02:10:22.982Z,941.97
2019-01-11T02:11:24.112Z,942
2019-01-11T02:12:24.658Z,941.99
2019-01-11T02:13:25.342Z,941.97
2019-01-11T02:14:26.470Z,942.01
2019-01-11T02:15:26.871Z,941.98
2019-01-11T02:16:28.001Z,942
2019-01-11T02:17:29.130Z,942.01
2019-01-11T02:18:29.537Z,942.02
2019-01-11T02:19:33.392Z,942.06
2019-01-11T02:20:34.345Z,942.04
2019-01-11T02:21:35.030Z,942.08
2019-01-11T02:22:35.723Z,942.07
2019-01-11T02:23:36.132Z,942.05
2019-01-11T02:24:36.539Z,942.06
2019-01-11T02:25:37.946Z,942.11
2019-01-11T02:25:49.689Z,942.07
2019-01-11T02:26:49.941Z,942.06
2019-01-11T02:27:50.352Z,942.07
2019-01-11T02:28:50.763Z,942.05
2019-01-11T02:29:51.894Z,942.06
2019-01-11T02:30:53.291Z,942.02
2019-01-11T02:31:54.278Z,942.02
2019-01-11T02:32:54.822Z,942
2019-01-11T02:33:56.064Z,942.03
2019-01-11T02:34:56.757Z,942.02
2019-01-11T02:35:57.719Z,942.01
2019-01-11T02:36:58.122Z,942.02
2019-01-11T02:37:58.655Z,942.04
2019-01-11T02:38:59.455Z,942.03
2019-01-11T02:40:00.181Z,942.05
2019-01-11T02:41:01.306Z,942.04
2019-01-11T02:42:01.984Z,942.05
2019-01-11T02:43:02.783Z,942.04
2019-01-11T02:44:03.465Z,942.05
2019-01-11T02:45:03.875Z,942.1
2019-01-11T02:46:04.280Z,942.07
2019-01-11T02:47:04.686Z,942.03
2019-01-11T02:48:05.669Z,942.06
2019-01-11T02:49:06.082Z,942.04
2019-01-11T02:50:07.042Z,942.04
2019-01-11T02:51:07.445Z,942.03
2019-01-11T02:52:08.572Z,942.05
2019-01-11T02:53:08.986Z,941.99
2019-01-11T02:54:09.226Z,942.04
2019-01-11T02:55:09.790Z,942.03
2019-01-11T02:56:10.469Z,942
2019-01-11T02:57:10.850Z,941.95
2019-01-11T02:58:11.256Z,941.97
2019-01-11T02:59:11.943Z,941.92
2019-01-11T03:00:12.900Z,941.96
2019-01-11T03:01:13.901Z,941.98
2019-01-11T03:02:14.435Z,941.95
2019-01-11T03:03:15.118Z,941.95
2019-01-11T03:04:15.523Z,941.95
2019-01-11T03:05:16.492Z,941.92
2019-01-11T03:06:17.457Z,941.95
2019-01-11T03:07:18.116Z,941.91
2019-01-11T03:08:18.805Z,941.92
2019-01-11T03:09:19.498Z,941.9
2019-01-11T03:10:19.907Z,941.93
2019-01-11T03:11:20.330Z,941.91
2019-01-11T03:12:21.457Z,941.95
2019-01-11T03:13:22.438Z,941.94
2019-01-11T03:14:22.847Z,941.95
2019-01-11T03:15:23.253Z,941.95
2019-01-11T03:16:23.935Z,941.97
2019-01-11T03:17:24.512Z,941.93
2019-01-11T03:18:25.193Z,941.95
2019-01-11T03:19:25.878Z,941.97
2019-01-11T03:20:26.565Z,941.94
2019-01-11T03:21:27.525Z,941.94
2019-01-11T03:22:28.488Z,941.96
2019-01-11T03:23:29.220Z,941.95
2019-01-11T03:24:29.440Z,941.91
2019-01-11T03:25:30.155Z,941.9
2019-01-11T03:26:30.846Z,941.93
2019-01-11T03:27:31.515Z,941.91
2019-01-11T03:28:31.753Z,941.87
2019-01-11T03:29:32.438Z,941.9
2019-01-11T03:30:33.606Z,941.91
2019-01-11T03:31:34.856Z,941.92
2019-01-11T03:32:36.298Z,941.92
2019-01-11T03:33:37.163Z,941.89
2019-01-11T03:34:38.166Z,941.88
2019-01-11T03:35:38.877Z,941.87
2019-01-11T03:36:39.114Z,941.87
2019-01-11T03:37:40.209Z,941.92
2019-01-11T03:38:41.445Z,941.88
2019-01-11T03:39:42.404Z,941.9
2019-01-11T03:40:43.567Z,941.84
2019-01-11T03:41:44.250Z,941.86
2019-01-11T03:42:45.494Z,941.86
2019-01-11T03:43:46.239Z,941.88
2019-01-11T03:44:46.923Z,941.92
2019-01-11T03:45:47.889Z,941.86
2019-01-11T03:46:48.294Z,941.84
2019-01-11T03:47:49.245Z,941.88
2019-01-11T03:48:50.371Z,941.88
2019-01-11T03:49:55.472Z,941.84
2019-01-11T03:50:56.438Z,941.86
2019-01-11T03:51:57.569Z,941.89
2019-01-11T03:52:58.244Z,941.87
2019-01-11T03:53:58.657Z,941.9
2019-01-11T03:54:59.344Z,941.91
2019-01-11T03:55:59.857Z,941.88
2019-01-11T03:57:00.983Z,941.93
2019-01-11T03:58:01.796Z,941.92
2019-01-11T03:59:02.476Z,941.93
2019-01-11T04:00:02.884Z,941.89
2019-01-11T04:01:03.286Z,941.92
2019-01-11T04:02:04.250Z,941.94
2019-01-11T04:03:04.660Z,941.9
2019-01-11T04:04:05.394Z,941.91
2019-01-11T04:05:06.806Z,941.95
2019-01-11T04:06:07.517Z,941.94
2019-01-11T04:07:08.473Z,941.89
2019-01-11T04:08:09.293Z,941.88
2019-01-11T04:09:09.978Z,941.88
2019-01-11T04:10:10.492Z,941.87
2019-01-11T04:11:11.654Z,941.91
2019-01-11T04:12:12.063Z,941.86
2019-01-11T04:13:13.189Z,941.89
2019-01-11T04:14:13.594Z,941.85
2019-01-11T04:15:14.554Z,941.83
2019-01-11T04:16:15.687Z,941.88
2019-01-11T04:17:16.817Z,941.86
2019-01-11T04:18:17.355Z,941.87
2019-01-11T04:19:17.761Z,941.91
2019-01-11T04:20:18.719Z,941.91
2019-01-11T04:21:19.404Z,941.91
2019-01-11T04:22:19.823Z,941.91
2019-01-11T04:23:20.057Z,941.9
2019-01-11T04:24:20.749Z,941.91
2019-01-11T04:25:21.448Z,941.89
2019-01-11T04:26:21.859Z,941.94
2019-01-11T04:27:22.094Z,941.95
2019-01-11T04:28:23.199Z,941.92
2019-01-11T04:29:24.005Z,941.92
2019-01-11T04:30:24.694Z,941.96
2019-01-11T04:31:24.949Z,941.92
2019-01-11T04:32:25.216Z,941.92
2019-01-11T04:33:25.900Z,941.94
2019-01-11T04:34:26.581Z,941.98
2019-01-11T04:35:27.406Z,941.95
2019-01-11T04:36:28.092Z,941.97
2019-01-11T04:37:29.058Z,941.99
2019-01-11T04:38:29.737Z,941.98
2019-01-11T04:39:30.876Z,942.04
2019-01-11T04:40:34.955Z,942
2019-01-11T04:41:35.640Z,942
2019-01-11T04:42:36.044Z,942.01
2019-01-11T04:43:36.580Z,941.99
2019-01-11T04:44:37.543Z,942.01
2019-01-11T04:45:38.096Z,941.99
2019-01-11T04:46:39.078Z,942.04
2019-01-11T04:47:39.314Z,942
2019-01-11T04:48:39.740Z,942.01
2019-01-11T04:49:40.432Z,942.05
2019-01-11T04:50:41.594Z,942.06
2019-01-11T04:51:41.833Z,942.04
2019-01-11T04:52:42.517Z,942.03
2019-01-11T04:53:43.025Z,942.02
2019-01-11T04:54:43.992Z,942.05
2019-01-11T04:55:44.411Z,942.06
2019-01-11T04:56:44.836Z,942.04
2019-01-11T04:57:45.520Z,942.04
2019-01-11T04:58:46.062Z,942.07
2019-01-11T04:59:46.746Z,942.09
2019-01-11T05:00:47.151Z,942.1
2019-01-11T05:01:47.561Z,942.04
2019-01-11T05:02:48.245Z,942.09
2019-01-11T05:03:48.762Z,942.11
2019-01-11T05:04:49.438Z,942.1
2019-01-11T05:05:50.123Z,942.11
2019-01-11T05:06:50.551Z,942.08
2019-01-11T05:07:51.244Z,942.08
2019-01-11T05:08:51.617Z,942.07
2019-01-11T05:09:52.889Z,942.1
2019-01-11T05:10:53.851Z,942.11
2019-01-11T05:11:54.288Z,942.08
2019-01-11T05:12:54.691Z,942.11
2019-01-11T05:13:54.942Z,942.12
2019-01-11T05:14:55.457Z,942.17
2019-01-11T05:15:56.140Z,942.15
2019-01-11T05:16:56.547Z,942.17
2019-01-11T05:17:56.954Z,942.16
2019-01-11T05:18:57.624Z,942.14
2019-01-11T05:19:58.317Z,942.16
2019-01-11T05:20:59.012Z,942.14
2019-01-11T05:21:59.416Z,942.18
2019-01-11T05:23:00.651Z,942.17
2019-01-11T05:24:01.625Z,942.17
2019-01-11T05:25:02.140Z,942.2
2019-01-11T05:26:02.655Z,942.2
2019-01-11T05:27:03.619Z,942.21
2019-01-11T05:28:04.028Z,942.24
2019-01-11T05:29:05.121Z,942.22
2019-01-11T05:30:05.528Z,942.24
2019-01-11T05:31:06.492Z,942.22
2019-01-11T05:32:07.010Z,942.27
2019-01-11T05:33:07.993Z,942.31
2019-01-11T05:34:08.960Z,942.31
2019-01-11T05:35:09.687Z,942.31
2019-01-11T05:36:10.369Z,942.3
2019-01-11T05:37:11.062Z,942.26
2019-01-11T05:38:12.022Z,942.28
2019-01-11T05:39:12.974Z,942.24
2019-01-11T05:40:13.934Z,942.24
2019-01-11T05:41:14.684Z,942.23
2019-01-11T05:42:15.654Z,942.27
2019-01-11T05:43:16.338Z,942.25
2019-01-11T05:44:17.027Z,942.23
2019-01-11T05:45:17.999Z,942.28
2019-01-11T05:46:19.193Z,942.27
2019-01-11T05:47:19.657Z,942.26
2019-01-11T05:48:20.339Z,942.28
2019-01-11T05:49:21.426Z,942.26
2019-01-11T05:50:24.724Z,942.28
2019-01-11T05:51:25.416Z,942.25
2019-01-11T05:52:25.819Z,942.25
2019-01-11T05:53:26.512Z,942.26
2019-01-11T05:54:26.752Z,942.27
2019-01-11T05:55:27.437Z,942.24
2019-01-11T05:56:28.401Z,942.26
2019-01-11T05:57:28.639Z,942.23
2019-01-11T05:58:29.878Z,942.27
2019-01-11T05:59:30.298Z,942.24
2019-01-11T06:00:30.986Z,942.27
2019-01-11T06:01:31.403Z,942.28
2019-01-11T06:02:32.088Z,942.25
2019-01-11T06:03:32.337Z,942.29
2019-01-11T06:04:33.298Z,942.27
2019-01-11T06:05:34.282Z,942.26
2019-01-11T06:06:34.544Z,942.26
2019-01-11T06:07:35.230Z,942.28
2019-01-11T06:08:35.913Z,942.24
2019-01-11T06:09:37.004Z,942.29
2019-01-11T06:10:37.963Z,942.24
2019-01-11T06:11:38.923Z,942.25
2019-01-11T06:12:40.050Z,942.27
2019-01-11T06:13:41.180Z,942.26
2019-01-11T06:14:41.579Z,942.26
2019-01-11T06:15:42.269Z,942.26
2019-01-11T06:16:42.955Z,942.27
2019-01-11T06:17:43.916Z,942.26
2019-01-11T06:18:44.154Z,942.26
2019-01-11T06:19:44.708Z,942.28
2019-01-11T06:20:45.390Z,942.31
2019-01-11T06:21:45.796Z,942.31
2019-01-11T06:22:46.201Z,942.32
2019-01-11T06:23:47.161Z,942.31
2019-01-11T06:24:47.568Z,942.3
2019-01-11T06:25:48.691Z,942.34
2019-01-11T06:26:49.096Z,942.34
2019-01-11T06:27:49.500Z,942.36
2019-01-11T06:28:50.461Z,942.35
2019-01-11T06:29:51.549Z,942.38
2019-01-11T06:30:52.230Z,942.37
2019-01-11T06:31:52.632Z,942.4
2019-01-11T06:32:53.042Z,942.4
2019-01-11T06:33:54.169Z,942.37
2019-01-11T06:34:55.150Z,942.39
2019-01-11T06:35:55.554Z,942.38
2019-01-11T06:36:56.961Z,942.37
2019-01-11T06:37:58.108Z,942.34
2019-01-11T06:38:58.793Z,942.4
2019-01-11T06:39:59.888Z,942.38
2019-01-11T06:41:00.409Z,942.38
2019-01-11T06:42:00.856Z,942.36
2019-01-11T06:43:03.942Z,942.36
2019-01-11T06:44:04.625Z,942.38
2019-01-11T06:45:06.044Z,942.39
2019-01-11T06:46:06.728Z,942.43
2019-01-11T06:47:07.134Z,942.43
2019-01-11T06:48:08.370Z,942.4
2019-01-11T06:49:09.333Z,942.41
2019-01-11T06:50:10.145Z,942.44
2019-01-11T06:51:10.852Z,942.46
2019-01-11T06:52:11.140Z,942.43
2019-01-11T06:53:11.541Z,942.42
2019-01-11T06:54:12.222Z,942.45
2019-01-11T06:55:13.224Z,942.41
2019-01-11T06:56:13.636Z,942.38
2019-01-11T06:57:14.320Z,942.44
2019-01-11T06:58:14.728Z,942.46
2019-01-11T06:59:15.137Z,942.41
2019-01-11T07:00:15.674Z,942.43
2019-01-11T07:01:16.685Z,942.46
2019-01-11T07:02:17.647Z,942.45
2019-01-11T07:03:18.779Z,942.45
2019-01-11T07:04:18.953Z,942.45
2019-01-11T07:05:19.365Z,942.45
2019-01-11T07:06:20.498Z,942.44
2019-01-11T07:07:21.190Z,942.43
2019-01-11T07:08:22.318Z,942.41
2019-01-11T07:09:23.284Z,942.45
2019-01-11T07:10:24.098Z,942.45
2019-01-11T07:11:24.840Z,942.44
2019-01-11T07:12:25.811Z,942.44
2019-01-11T07:13:26.217Z,942.43
2019-01-11T07:14:26.625Z,942.4
2019-01-11T07:15:27.041Z,942.44
2019-01-11T07:16:27.722Z,942.4
2019-01-11T07:17:28.849Z,942.42
2019-01-11T07:18:29.296Z,942.39
2019-01-11T07:19:29.978Z,942.42
2019-01-11T07:20:30.360Z,942.39
2019-01-11T07:21:30.771Z,942.43
2019-01-11T07:22:31.007Z,942.46
2019-01-11T07:23:31.971Z,942.47
2019-01-11T07:24:32.934Z,942.45
2019-01-11T07:25:33.896Z,942.51
2019-01-11T07:26:35.029Z,942.49
2019-01-11T07:27:35.733Z,942.53
2019-01-11T07:28:36.147Z,942.51
2019-01-11T07:29:36.562Z,942.57
2019-01-11T07:30:37.680Z,942.56
2019-01-11T07:31:38.811Z,942.58
2019-01-11T07:32:39.944Z,942.57
2019-01-11T07:33:41.188Z,942.55
2019-01-11T07:34:42.164Z,942.54
2019-01-11T07:35:42.618Z,942.54
2019-01-11T07:36:43.303Z,942.54
2019-01-11T07:37:43.992Z,942.52
2019-01-11T07:38:44.683Z,942.52
2019-01-11T07:39:45.400Z,942.55
2019-01-11T07:40:45.935Z,942.58
2019-01-11T07:41:48.021Z,942.57
2019-01-11T07:42:48.260Z,942.59
2019-01-11T07:43:48.682Z,942.56
2019-01-11T07:44:49.370Z,942.6
2019-01-11T07:45:50.056Z,942.6
2019-01-11T07:46:50.742Z,942.64
2019-01-11T07:47:51.984Z,942.64
2019-01-11T07:48:52.671Z,942.62
2019-01-11T07:49:53.808Z,942.7
2019-01-11T07:50:54.619Z,942.68
2019-01-11T07:51:55.308Z,942.66
2019-01-11T07:52:55.995Z,942.68
2019-01-11T07:53:56.404Z,942.66
2019-01-11T07:54:57.371Z,942.64
2019-01-11T07:55:57.789Z,942.69
2019-01-11T07:56:58.024Z,942.67
2019-01-11T07:57:59.917Z,942.7
2019-01-11T07:59:01.811Z,942.7
2019-01-11T07:59:12.257Z,942.68
2019-01-11T08:00:13.402Z,942.71
2019-01-11T08:01:13.639Z,942.73
2019-01-11T08:02:14.327Z,942.72
2019-01-11T08:03:15.013Z,942.72
2019-01-11T08:04:15.452Z,942.72
2019-01-11T08:05:15.861Z,942.74
2019-01-11T08:06:16.553Z,942.75
2019-01-11T08:07:17.238Z,942.76
2019-01-11T08:08:18.204Z,942.76
2019-01-11T08:09:19.343Z,942.79
2019-01-11T08:10:20.437Z,942.82
2019-01-11T08:11:21.921Z,942.82
2019-01-11T08:12:22.087Z,942.88
2019-01-11T08:13:23.221Z,942.87
2019-01-11T08:14:23.908Z,942.86
2019-01-11T08:15:24.613Z,942.89
2019-01-11T08:16:25.311Z,942.89
2019-01-11T08:17:26.283Z,942.86
2019-01-11T08:18:26.690Z,942.85
2019-01-11T08:19:26.935Z,942.86
2019-01-11T08:20:27.902Z,942.86
2019-01-11T08:21:28.601Z,942.87
2019-01-11T08:22:29.288Z,942.85
2019-01-11T08:23:30.306Z,942.87
2019-01-11T08:24:31.269Z,942.87
2019-01-11T08:25:32.401Z,942.87
2019-01-11T08:26:33.539Z,942.88
2019-01-11T08:27:33.952Z,942.86
2019-01-11T08:28:34.649Z,942.87
2019-01-11T08:29:37.035Z,942.87
2019-01-11T08:30:37.916Z,942.88
2019-01-11T08:31:38.601Z,942.85
2019-01-11T08:32:39.011Z,942.9
2019-01-11T08:33:40.149Z,942.89
2019-01-11T08:34:40.834Z,942.87
2019-01-11T08:35:41.803Z,942.9
2019-01-11T08:36:42.511Z,942.9
2019-01-11T08:37:42.776Z,942.86
2019-01-11T08:38:43.739Z,942.89
2019-01-11T08:39:44.705Z,942.87
2019-01-11T08:40:45.242Z,942.89
2019-01-11T08:41:45.933Z,942.9
2019-01-11T08:42:47.187Z,942.94
2019-01-11T08:43:48.163Z,942.88
2019-01-11T08:44:48.844Z,942.91
2019-01-11T08:45:49.814Z,942.92
2019-01-11T08:46:50.749Z,942.96
2019-01-11T08:47:51.820Z,942.94
2019-01-11T08:48:52.510Z,942.97
2019-01-11T08:49:55.199Z,942.98
2019-01-11T08:50:06.228Z,942.92
2019-01-11T08:51:06.673Z,942.94
2019-01-11T08:52:07.640Z,942.93
2019-01-11T08:53:08.104Z,942.93
2019-01-11T08:54:08.790Z,942.91
2019-01-11T08:55:09.209Z,942.89
2019-01-11T08:56:10.345Z,942.85
2019-01-11T08:57:10.756Z,942.84
2019-01-11T08:58:11.497Z,942.82
2019-01-11T08:59:12.493Z,942.82
2019-01-11T09:00:14.379Z,942.87
2019-01-11T09:00:25.596Z,942.84
2019-01-11T09:01:25.882Z,942.87
2019-01-11T09:02:26.578Z,942.91
2019-01-11T09:03:27.441Z,942.83
2019-01-11T09:04:28.219Z,942.8
2019-01-11T09:05:28.627Z,942.82
2019-01-11T09:06:29.353Z,942.83
2019-01-11T09:07:29.607Z,942.83
2019-01-11T09:08:30.014Z,942.82
2019-01-11T09:09:30.704Z,942.84
2019-01-11T09:10:32.658Z,942.86
2019-01-11T09:10:44.332Z,942.86
2019-01-11T09:10:57.587Z,942.83
2019-01-11T09:11:09.962Z,942.83
2019-01-11T09:11:22.342Z,942.83
2019-01-11T09:11:35.122Z,942.82
2019-01-11T09:12:37.135Z,942.83
2019-01-11T09:12:48.278Z,942.85
2019-01-11T09:13:00.463Z,942.82
2019-01-11T09:13:13.701Z,942.85
2019-01-11T09:13:25.061Z,942.84
2019-01-11T09:14:25.296Z,942.87
2019-01-11T09:15:26.428Z,942.83
2019-01-11T09:16:26.852Z,942.84
2019-01-11T09:17:27.264Z,942.83
2019-01-11T09:18:28.249Z,942.85
2019-01-11T09:19:29.222Z,942.87
2019-01-11T09:20:29.629Z,942.86
2019-01-11T09:21:30.040Z,942.91
2019-01-11T09:22:30.728Z,942.87
2019-01-11T09:23:31.975Z,942.85
2019-01-11T09:24:32.813Z,942.85
2019-01-11T09:25:33.946Z,942.85
2019-01-11T09:26:35.080Z,942.87
2019-01-11T09:27:35.495Z,942.9
2019-01-11T09:28:36.189Z,942.85
2019-01-11T09:29:36.600Z,942.91
2019-01-11T09:30:37.744Z,942.91
2019-01-11T09:31:39.851Z,942.89
2019-01-11T09:31:50.402Z,942.9
2019-01-11T09:32:52.325Z,942.9
2019-01-11T09:33:03.083Z,942.88
2019-01-11T09:33:20.305Z,942.91
2019-01-11T09:33:26.858Z,942.89
2019-01-11T09:34:27.783Z,942.88
2019-01-11T09:35:28.095Z,942.9
2019-01-11T09:36:28.511Z,942.9
2019-01-11T09:37:29.202Z,942.91
2019-01-11T09:38:29.938Z,942.9
2019-01-11T09:39:30.907Z,942.93
2019-01-11T09:40:31.752Z,942.97
2019-01-11T09:41:34.587Z,942.99
2019-01-11T09:42:35.250Z,942.93
2019-01-11T09:43:35.940Z,942.93
2019-01-11T09:44:36.632Z,942.98
2019-01-11T09:45:37.047Z,943.01
2019-01-11T09:46:37.458Z,943.02
2019-01-11T09:47:37.918Z,943.04
2019-01-11T09:48:38.607Z,943.04
2019-01-11T09:49:39.573Z,943.02
2019-01-11T09:50:40.546Z,943.04
2019-01-11T09:51:40.957Z,942.96
2019-01-11T09:52:42.201Z,943.01
2019-01-11T09:53:43.463Z,942.98
2019-01-11T09:54:44.583Z,943.01
2019-01-11T09:55:45.356Z,942.96
2019-01-11T09:56:46.481Z,942.95
2019-01-11T09:57:47.614Z,942.91
2019-01-11T09:58:48.027Z,942.93
2019-01-11T09:59:49.162Z,942.9
2019-01-11T10:00:50.296Z,942.92
2019-01-11T10:01:02.344Z,942.98
2019-01-11T10:02:03.478Z,942.93
2019-01-11T10:03:04.174Z,942.97
2019-01-11T10:04:04.587Z,942.95
2019-01-11T10:05:05.555Z,942.96
2019-01-11T10:06:06.434Z,942.94
2019-01-11T10:07:06.935Z,942.9
2019-01-11T10:08:07.641Z,942.93
2019-01-11T10:09:08.606Z,942.92
2019-01-11T10:10:08.785Z,942.93
2019-01-11T10:11:09.503Z,942.88
2019-01-11T10:12:10.159Z,942.9
2019-01-11T10:13:10.576Z,942.89
2019-01-11T10:14:11.271Z,942.88
2019-01-11T10:15:11.955Z,942.95
2019-01-11T10:16:12.927Z,942.94
2019-01-11T10:17:13.336Z,942.98
2019-01-11T10:18:13.752Z,942.98
2019-01-11T10:19:14.167Z,942.93
2019-01-11T10:20:14.583Z,942.96
2019-01-11T10:21:15.027Z,942.95
2019-01-11T10:21:26.818Z,942.91
2019-01-11T10:22:27.581Z,942.91
2019-01-11T10:23:28.271Z,942.88
2019-01-11T10:24:28.811Z,942.88
2019-01-11T10:25:29.645Z,942.83
2019-01-11T10:26:30.344Z,942.83
2019-01-11T10:27:30.828Z,942.82
2019-01-11T10:28:31.596Z,942.85
2019-01-11T10:29:31.827Z,942.85
2019-01-11T10:30:32.799Z,942.9
2019-01-11T10:31:34.239Z,942.84
2019-01-11T10:32:35.365Z,942.86
2019-01-11T10:33:36.695Z,942.91
2019-01-11T10:34:37.386Z,942.86
2019-01-11T10:35:38.527Z,942.82
2019-01-11T10:36:38.945Z,942.89
2019-01-11T10:37:39.471Z,942.9
2019-01-11T10:38:40.175Z,942.86
2019-01-11T10:39:41.312Z,942.91
2019-01-11T10:40:41.731Z,942.9
2019-01-11T10:41:42.870Z,942.88
2019-01-11T10:42:44.262Z,942.94
2019-01-11T10:43:44.993Z,942.95
2019-01-11T10:44:46.242Z,942.95
2019-01-11T10:45:46.936Z,942.89
2019-01-11T10:46:49.842Z,942.94
2019-01-11T10:47:50.544Z,942.85
2019-01-11T10:48:51.813Z,942.84
2019-01-11T10:49:52.628Z,942.87
2019-01-11T10:50:53.325Z,942.86
2019-01-11T10:51:55.408Z,942.87
2019-01-11T10:52:55.191Z,942.97
2019-01-11T10:53:57.165Z,942.83
2019-01-11T10:54:08.143Z,942.88
2019-01-11T10:55:08.772Z,942.85
2019-01-11T10:56:10.202Z,942.87
2019-01-11T10:57:11.356Z,942.93
2019-01-11T10:58:12.327Z,942.91
2019-01-11T10:59:12.887Z,942.94
2019-01-11T11:00:14.046Z,942.84
2019-01-11T11:01:14.533Z,942.79
2019-01-11T11:02:15.943Z,942.81
2019-01-11T11:03:16.105Z,942.83
2019-01-11T11:04:17.241Z,942.83
2019-01-11T11:05:18.265Z,942.83
2019-01-11T11:06:18.527Z,942.77
2019-01-11T11:07:19.225Z,942.76
2019-01-11T11:08:20.437Z,942.83
2019-01-11T11:09:21.090Z,942.82
2019-01-11T11:10:22.038Z,942.8
2019-01-11T11:11:22.975Z,942.81
2019-01-11T11:12:23.504Z,942.79
2019-01-11T11:13:24.648Z,942.82
2019-01-11T11:14:25.349Z,942.81
2019-01-11T11:15:25.924Z,942.85
2019-01-11T11:16:26.895Z,942.76
2019-01-11T11:17:28.043Z,942.79
2019-01-11T11:18:28.495Z,942.75
2019-01-11T11:19:29.196Z,942.72
2019-01-11T11:20:30.171Z,942.72
2019-01-11T11:21:35.337Z,942.73
2019-01-11T11:22:36.040Z,942.75
2019-01-11T11:23:37.295Z,942.71
2019-01-11T11:24:37.721Z,942.72
2019-01-11T11:25:39.103Z,942.67
2019-01-11T11:26:40.012Z,942.72
2019-01-11T11:27:40.732Z,942.66
2019-01-11T11:28:41.878Z,942.59
2019-01-11T11:29:43.003Z,942.62
2019-01-11T11:30:43.447Z,942.6
2019-01-11T11:31:44.430Z,942.6
2019-01-11T11:32:45.426Z,942.6
2019-01-11T11:33:46.478Z,942.52
2019-01-11T11:34:47.454Z,942.54
2019-01-11T11:35:49.355Z,942.53
2019-01-11T11:36:49.455Z,942.5
2019-01-11T11:37:50.189Z,942.54
2019-01-11T11:38:50.481Z,942.49
2019-01-11T11:39:50.791Z,942.49
2019-01-11T11:40:51.214Z,942.52
2019-01-11T11:41:52.369Z,942.46
2019-01-11T11:42:52.797Z,942.45
2019-01-11T11:43:53.938Z,942.45
2019-01-11T11:44:55.079Z,942.43
2019-01-11T11:45:55.495Z,942.42
2019-01-11T11:46:56.022Z,942.43
2019-01-11T11:47:56.556Z,942.43
2019-01-11T11:48:57.706Z,942.45
2019-01-11T11:49:58.939Z,942.45
2019-01-11T11:51:00.854Z,942.41
2019-01-11T11:52:01.906Z,942.37
2019-01-11T11:53:03.602Z,942.38
2019-01-11T11:54:04.119Z,942.38
2019-01-11T11:55:04.605Z,942.34
2019-01-11T11:56:05.318Z,942.35
2019-01-11T11:57:06.055Z,942.32
2019-01-11T11:58:06.846Z,942.31
2019-01-11T11:59:07.596Z,942.33
2019-01-11T12:00:08.133Z,942.33
2019-01-11T12:01:08.818Z,942.32
2019-01-11T12:02:11.018Z,942.32
2019-01-11T12:02:22.660Z,942.29
2019-01-11T12:03:23.473Z,942.35
2019-01-11T12:04:24.168Z,942.34
2019-01-11T12:05:24.671Z,942.35
2019-01-11T12:06:25.369Z,942.34
2019-01-11T12:07:25.784Z,942.24
2019-01-11T12:08:27.236Z,942.22
2019-01-11T12:09:28.388Z,942.2
2019-01-11T12:10:29.524Z,942.22
2019-01-11T12:11:30.255Z,942.21
2019-01-11T12:12:31.817Z,942.23
2019-01-11T12:13:35.121Z,942.17
2019-01-11T12:14:36.012Z,942.23
2019-01-11T12:15:37.185Z,942.19
2019-01-11T12:16:37.634Z,942.17
2019-01-11T12:17:40.011Z,942.15
2019-01-11T12:18:39.856Z,942.1
2019-01-11T12:19:40.140Z,942.11
2019-01-11T12:20:40.554Z,942.13
2019-01-11T12:21:48.172Z,942.1
2019-01-11T12:21:53.744Z,942.12
2019-01-11T12:22:05.751Z,942.11